Time;durP1;ratioP1;P1;durP2;ratioP2;P2;SDS_P1;SDS_P2;PMS_P1;PMS_P2;Temp;Humidity;BMP_temperature;BMP_pressure;BME280_temperature;BME280_humidity;BME280_pressure;Samples;Min_cycle;Max_cycle;Signal;HPM_P1;HPM_P2
2022/08/05 00:00:56;;;;;;;7.03;3.33;;;19.90;99.90;;;;;;5030156;28;20298;-81
2022/08/05 00:03:41;;;;;;;5.22;3.75;;;19.90;99.90;;;;;;5030154;28;20195;-81
2022/08/05 00:06:26;;;;;;;6.40;3.75;;;19.90;99.90;;;;;;5035237;28;20552;-81
2022/08/05 00:09:10;;;;;;;5.88;3.25;;;19.80;99.90;;;;;;5036066;28;20257;-80
2022/08/05 00:11:54;;;;;;;7.68;3.53;;;19.80;99.90;;;;;;5033051;28;20210;-82
2022/08/05 00:14:39;;;;;;;6.82;3.28;;;19.80;99.90;;;;;;5032894;28;20833;-82
2022/08/05 00:17:23;;;;;;;5.75;3.40;;;19.80;99.90;;;;;;5036391;28;20219;-81
2022/08/05 00:20:08;;;;;;;4.85;3.40;;;19.70;99.90;;;;;;5033842;28;20234;-80
2022/08/05 00:22:52;;;;;;;8.43;3.63;;;19.70;99.90;;;;;;5033596;28;20262;-80
2022/08/05 00:25:36;;;;;;;8.30;3.22;;;19.70;99.90;;;;;;5034518;28;20230;-80
2022/08/05 00:28:21;;;;;;;5.68;3.13;;;19.70;99.90;;;;;;5033257;28;20235;-80
2022/08/05 00:31:05;;;;;;;7.78;3.80;;;19.60;99.90;;;;;;5034239;28;20211;-80
2022/08/05 00:33:49;;;;;;;7.13;3.80;;;19.60;99.90;;;;;;5030049;28;20199;-80
2022/08/05 00:36:33;;;;;;;6.10;3.13;;;19.60;99.90;;;;;;5028892;28;20195;-80
2022/08/05 00:39:18;;;;;;;8.13;3.60;;;19.60;99.90;;;;;;5030461;28;20215;-80
2022/08/05 00:42:04;;;;;;;6.95;3.60;;;19.60;99.90;;;;;;5032774;28;20285;-79
2022/08/05 00:44:48;;;;;;;6.10;3.80;;;19.60;99.90;;;;;;5032665;28;20242;-79
2022/08/05 00:47:32;;;;;;;7.75;3.95;;;19.70;99.90;;;;;;5035244;28;20203;-80
2022/08/05 00:50:17;;;;;;;6.70;3.60;;;19.70;99.90;;;;;;5031603;28;20753;-79
2022/08/05 00:53:02;;;;;;;5.93;3.80;;;19.60;99.90;;;;;;5024319;28;20188;-80
2022/08/05 00:55:46;;;;;;;10.90;4.35;;;19.50;99.90;;;;;;5024222;28;20733;-80
2022/08/05 00:58:31;;;;;;;8.20;3.70;;;19.40;99.90;;;;;;5028557;28;20735;-80
2022/08/05 01:01:23;;;;;;;5.95;3.45;;;19.40;99.90;;;;;;5033149;28;20250;-80
2022/08/05 01:04:08;;;;;;;8.20;4.57;;;19.40;99.90;;;;;;5030895;28;20433;-78
2022/08/05 01:06:52;;;;;;;7.70;4.03;;;19.30;99.90;;;;;;5031143;28;20211;-79
2022/08/05 01:09:36;;;;;;;10.65;4.65;;;19.20;99.90;;;;;;5032578;28;20486;-80
2022/08/05 01:12:23;;;;;;;10.23;4.47;;;19.20;99.90;;;;;;5027133;28;20244;-80
2022/08/05 01:15:09;;;;;;;9.18;4.00;;;19.20;99.90;;;;;;5032931;28;20199;-80
2022/08/05 01:17:59;;;;;;;12.18;4.50;;;19.10;99.90;;;;;;5035223;28;20195;-80
2022/08/05 01:21:08;;;;;;;7.35;3.92;;;19.10;99.90;;;;;;5032399;28;20697;-79
2022/08/05 01:24:25;;;;;;;7.55;3.70;;;19.10;99.90;;;;;;5044010;28;20276;-80
2022/08/05 01:27:17;;;;;;;7.40;4.20;;;19.00;99.90;;;;;;5035627;28;20238;-82
2022/08/05 01:30:04;;;;;;;7.40;4.10;;;19.00;99.90;;;;;;5030586;28;20216;-81
2022/08/05 01:32:50;;;;;;;8.95;4.10;;;19.00;99.90;;;;;;5034426;28;20192;-81
2022/08/05 01:35:39;;;;;;;7.78;3.80;;;19.00;99.90;;;;;;5034849;28;20242;-80
2022/08/05 01:38:26;;;;;;;7.57;4.03;;;19.00;99.90;;;;;;5023429;28;20180;-80
2022/08/05 01:41:13;;;;;;;7.22;3.40;;;19.00;99.90;;;;;;5032506;28;20275;-81
2022/08/05 01:43:59;;;;;;;6.13;3.60;;;19.00;99.90;;;;;;5032126;28;20202;-80
2022/08/05 01:46:45;;;;;;;8.27;3.80;;;18.90;99.90;;;;;;5035626;28;20246;-80
2022/08/05 01:49:32;;;;;;;7.45;3.90;;;18.90;99.90;;;;;;5033341;28;20254;-80
2022/08/05 01:52:19;;;;;;;5.75;3.85;;;18.80;99.90;;;;;;5030542;28;20255;-81
2022/08/05 01:55:10;;;;;;;9.15;4.30;;;18.80;99.90;;;;;;5030631;28;20234;-80
2022/08/05 01:57:56;;;;;;;8.43;3.75;;;18.70;99.90;;;;;;5027535;28;20196;-79
2022/08/05 02:00:44;;;;;;;10.95;4.32;;;18.60;99.90;;;;;;5029995;28;20211;-80
2022/08/05 02:03:34;;;;;;;9.20;5.28;;;18.60;99.90;;;;;;5016216;28;20421;-79
2022/08/05 02:06:21;;;;;;;9.18;5.40;;;18.60;99.90;;;;;;5028204;28;20419;-79
2022/08/05 02:09:12;;;;;;;9.57;5.87;;;18.70;99.90;;;;;;5031199;28;20452;-80
2022/08/05 02:12:29;;;;;;;8.20;5.32;;;18.60;99.90;;;;;;5027387;28;20184;-80
2022/08/05 02:15:29;;;;;;;8.18;5.15;;;18.60;99.90;;;;;;5030581;28;20608;-80
2022/08/05 02:18:43;;;;;;;7.53;4.53;;;18.60;99.90;;;;;;5030398;28;20191;-80
2022/08/05 02:21:32;;;;;;;10.65;5.03;;;18.50;99.90;;;;;;5034609;28;20266;-80
2022/08/05 02:24:19;;;;;;;10.43;6.03;;;18.50;99.90;;;;;;5026268;28;20492;-79
2022/08/05 02:27:07;;;;;;;8.07;5.50;;;18.50;99.90;;;;;;5033203;28;20188;-80
2022/08/05 02:29:52;;;;;;;8.80;5.23;;;18.50;99.90;;;;;;5031929;28;20264;-80
2022/08/05 02:32:39;;;;;;;7.30;4.87;;;18.40;99.90;;;;;;5024160;28;20314;-80
2022/08/05 02:35:27;;;;;;;11.37;6.33;;;18.50;99.90;;;;;;5030910;28;20195;-80
2022/08/05 02:38:13;;;;;;;8.50;6.07;;;18.40;99.90;;;;;;5032675;28;20207;-78
2022/08/05 02:41:02;;;;;;;10.27;6.93;;;18.30;99.90;;;;;;5033592;28;20616;-80
2022/08/05 02:43:48;;;;;;;9.10;5.87;;;18.30;99.90;;;;;;5032780;28;20195;-79
2022/08/05 02:46:37;;;;;;;9.30;6.33;;;18.30;99.90;;;;;;5029031;28;20230;-81
2022/08/05 02:49:24;;;;;;;12.53;6.90;;;18.30;99.90;;;;;;5032466;28;20266;-79
2022/08/05 02:52:12;;;;;;;8.73;6.50;;;18.30;99.90;;;;;;5031711;28;20191;-80
2022/08/05 02:54:58;;;;;;;7.03;5.73;;;18.30;99.90;;;;;;5031323;28;20238;-80
2022/08/05 02:57:44;;;;;;;8.87;6.43;;;18.20;99.90;;;;;;5033324;28;20230;-80
2022/08/05 03:00:29;;;;;;;11.33;6.70;;;18.30;99.90;;;;;;5026062;28;20729;-80
2022/08/05 03:03:17;;;;;;;11.27;6.93;;;18.20;99.90;;;;;;5030044;28;20236;-79
2022/08/05 03:06:02;;;;;;;8.17;6.63;;;18.20;99.90;;;;;;5029381;28;20191;-81
2022/08/05 03:08:48;;;;;;;9.50;7.60;;;18.20;99.90;;;;;;5036000;28;20190;-81
2022/08/05 03:11:32;;;;;;;10.83;7.63;;;18.10;99.90;;;;;;5032008;28;20239;-81
2022/08/05 03:14:17;;;;;;;10.77;7.43;;;18.10;99.90;;;;;;5035981;28;20255;-79
2022/08/05 03:17:02;;;;;;;13.63;7.63;;;18.10;99.90;;;;;;5031938;28;20257;-80
2022/08/05 03:19:46;;;;;;;10.70;7.23;;;18.10;99.90;;;;;;5030816;28;20211;-81
2022/08/05 03:22:31;;;;;;;12.10;7.13;;;18.10;99.90;;;;;;5031866;28;20713;-81
2022/08/05 03:25:17;;;;;;;9.87;6.70;;;18.10;99.90;;;;;;5033111;28;20184;-81
2022/08/05 03:28:04;;;;;;;11.63;7.63;;;18.00;99.90;;;;;;5028313;28;20191;-79
2022/08/05 03:30:49;;;;;;;11.73;7.70;;;18.10;99.90;;;;;;5029813;28;20238;-80
2022/08/05 03:33:38;;;;;;;11.73;7.80;;;18.00;99.90;;;;;;5027526;28;20222;-80
2022/08/05 03:36:24;;;;;;;13.70;7.90;;;18.10;99.90;;;;;;5034459;28;20211;-81
2022/08/05 03:39:08;;;;;;;10.70;7.88;;;18.10;99.90;;;;;;5027002;28;20238;-81
2022/08/05 03:41:54;;;;;;;10.23;7.80;;;18.10;99.90;;;;;;5032860;28;20254;-81
2022/08/05 03:44:38;;;;;;;11.10;8.17;;;18.10;99.90;;;;;;5033367;28;20195;-81
2022/08/05 03:47:22;;;;;;;12.73;8.30;;;18.10;99.90;;;;;;5030171;28;20191;-81
2022/08/05 03:50:06;;;;;;;16.97;8.87;;;18.00;99.90;;;;;;5025963;28;20287;-81
2022/08/05 03:53:04;;;;;;;14.67;9.20;;;18.00;99.90;;;;;;5024170;28;20706;-81
2022/08/05 03:55:54;;;;;;;14.20;9.10;;;18.10;99.90;;;;;;5027201;28;20283;-81
2022/08/05 03:58:41;;;;;;;14.03;9.27;;;18.10;99.90;;;;;;5027364;28;20242;-80
2022/08/05 04:01:28;;;;;;;11.20;8.50;;;18.00;99.90;;;;;;5025570;28;20215;-81
2022/08/05 04:04:16;;;;;;;12.93;8.90;;;18.00;99.90;;;;;;5024289;28;20305;-79
2022/08/05 04:07:02;;;;;;;12.23;9.40;;;18.00;99.90;;;;;;5027165;28;20561;-80
2022/08/05 04:09:46;;;;;;;12.03;9.67;;;17.90;99.90;;;;;;5029512;28;20220;-80
2022/08/05 04:12:31;;;;;;;12.83;8.53;;;17.90;99.90;;;;;;5027947;28;20219;-80
2022/08/05 04:15:17;;;;;;;13.70;10.23;;;17.90;99.90;;;;;;5030101;28;20246;-80
2022/08/05 04:18:04;;;;;;;10.47;9.07;;;17.90;99.90;;;;;;5028630;28;20191;-80
2022/08/05 04:20:55;;;;;;;12.77;9.70;;;17.90;99.90;;;;;;5029730;28;20218;-79
2022/08/05 04:23:40;;;;;;;14.40;9.93;;;17.90;99.90;;;;;;5025752;28;20428;-80
2022/08/05 04:26:24;;;;;;;17.43;10.63;;;17.90;99.90;;;;;;5030996;28;20203;-79
2022/08/05 04:29:08;;;;;;;12.73;9.53;;;17.90;99.90;;;;;;5029839;28;20222;-80
2022/08/05 04:31:53;;;;;;;14.23;10.27;;;18.00;99.90;;;;;;5024467;28;20190;-81
2022/08/05 04:34:38;;;;;;;16.50;10.07;;;18.00;99.90;;;;;;5021443;28;20231;-80
2022/08/05 04:37:22;;;;;;;13.63;10.10;;;18.00;99.90;;;;;;5022064;28;20304;-79
2022/08/05 04:40:07;;;;;;;15.43;10.23;;;18.00;99.90;;;;;;5026413;28;20231;-80
2022/08/05 04:42:51;;;;;;;14.27;10.37;;;18.00;99.90;;;;;;5023773;28;20223;-79
2022/08/05 04:45:36;;;;;;;13.03;10.33;;;18.00;99.90;;;;;;5029289;28;20188;-80
2022/08/05 04:48:21;;;;;;;17.60;10.33;;;18.00;99.90;;;;;;5032872;28;20202;-80
2022/08/05 04:51:05;;;;;;;18.40;11.07;;;18.00;99.90;;;;;;5034186;28;20218;-80
2022/08/05 04:53:49;;;;;;;14.73;10.90;;;18.00;99.90;;;;;;5034420;28;20246;-80
2022/08/05 04:56:34;;;;;;;16.60;10.80;;;18.00;99.90;;;;;;5034924;28;20852;-81
2022/08/05 04:59:19;;;;;;;17.13;10.47;;;18.00;99.90;;;;;;5035187;28;20214;-81
2022/08/05 05:02:04;;;;;;;16.40;10.87;;;18.00;99.90;;;;;;5029770;28;20211;-80
2022/08/05 05:04:48;;;;;;;14.67;10.53;;;18.10;99.90;;;;;;5033348;28;20194;-81
2022/08/05 05:07:32;;;;;;;13.67;10.50;;;18.10;99.90;;;;;;5031667;28;20261;-84
2022/08/05 05:10:17;;;;;;;15.53;11.17;;;18.20;99.90;;;;;;5026502;28;20215;-79
2022/08/05 05:13:01;;;;;;;12.47;10.47;;;18.20;99.90;;;;;;5025633;28;20190;-78
2022/08/05 05:15:45;;;;;;;14.57;11.33;;;18.20;99.90;;;;;;5025564;28;20212;-78
2022/08/05 05:18:29;;;;;;;12.40;10.10;;;18.20;99.90;;;;;;5027882;28;20717;-78
2022/08/05 05:21:13;;;;;;;16.37;11.57;;;18.30;99.90;;;;;;5032048;28;20211;-78
2022/08/05 05:23:58;;;;;;;16.80;11.40;;;18.20;99.90;;;;;;5030174;28;20638;-78
2022/08/05 05:26:42;;;;;;;20.77;11.43;;;18.10;99.90;;;;;;5030547;28;20215;-78
2022/08/05 05:29:26;;;;;;;16.77;10.93;;;18.10;99.90;;;;;;5025898;28;20268;-78
2022/08/05 05:32:10;;;;;;;15.83;10.30;;;18.10;99.90;;;;;;5026920;28;20195;-83
2022/08/05 05:34:54;;;;;;;13.53;9.67;;;18.10;99.90;;;;;;5030177;28;20202;-80
2022/08/05 05:37:50;;;;;;;12.40;10.17;;;18.10;99.90;;;;;;5023345;28;20707;-80
2022/08/05 05:40:34;;;;;;;12.50;10.53;;;18.10;99.90;;;;;;5033805;28;20219;-80
2022/08/05 05:43:18;;;;;;;14.10;9.13;;;18.10;99.90;;;;;;5025231;28;20204;-80
2022/08/05 05:46:03;;;;;;;14.57;10.00;;;18.10;99.90;;;;;;5031891;28;20562;-79
2022/08/05 05:48:47;;;;;;;15.03;11.30;;;18.10;99.90;;;;;;5021694;28;20215;-84
2022/08/05 05:51:31;;;;;;;15.23;10.97;;;18.10;99.90;;;;;;5026680;28;20232;-78
2022/08/05 05:54:15;;;;;;;18.30;11.33;;;18.10;99.90;;;;;;5031509;28;20218;-82
2022/08/05 05:56:59;;;;;;;14.67;10.53;;;18.10;99.90;;;;;;5025636;28;20290;-79
2022/08/05 05:59:43;;;;;;;14.90;10.50;;;18.10;99.90;;;;;;5022320;28;20223;-78
2022/08/05 06:02:28;;;;;;;11.83;9.13;;;18.10;99.90;;;;;;5033437;28;20250;-78
2022/08/05 06:05:14;;;;;;;16.20;9.60;;;18.20;99.90;;;;;;5032569;28;20191;-77
2022/08/05 06:07:58;;;;;;;12.57;9.00;;;18.20;99.90;;;;;;5033204;28;20195;-77
2022/08/05 06:10:42;;;;;;;10.40;9.23;;;18.20;99.90;;;;;;5028534;28;20288;-77
2022/08/05 06:13:27;;;;;;;13.57;9.50;;;18.10;99.90;;;;;;5030471;28;20202;-77
2022/08/05 06:16:11;;;;;;;11.20;8.83;;;18.20;99.90;;;;;;5023041;28;20551;-77
2022/08/05 06:18:55;;;;;;;11.00;9.13;;;18.20;99.90;;;;;;5034832;28;20266;-79
2022/08/05 06:21:39;;;;;;;11.80;8.80;;;18.10;99.90;;;;;;5026698;28;20216;-77
2022/08/05 06:24:23;;;;;;;11.30;8.83;;;18.10;99.90;;;;;;5029503;28;20729;-77
2022/08/05 06:27:07;;;;;;;13.37;8.97;;;18.10;99.90;;;;;;5030640;28;20263;-78
2022/08/05 06:29:51;;;;;;;13.57;9.50;;;18.10;99.90;;;;;;5027826;28;20214;-77
2022/08/05 06:32:35;;;;;;;14.77;9.27;;;18.10;99.90;;;;;;5032040;28;20207;-77
2022/08/05 06:35:20;;;;;;;14.43;10.40;;;18.10;99.90;;;;;;5026518;28;20238;-77
2022/08/05 06:38:04;;;;;;;13.67;9.60;;;18.10;99.90;;;;;;5028949;28;20192;-78
2022/08/05 06:40:48;;;;;;;13.77;9.33;;;18.10;99.90;;;;;;5024204;28;20210;-78
2022/08/05 06:43:32;;;;;;;12.50;9.73;;;18.10;99.90;;;;;;5026410;28;20203;-78
2022/08/05 06:46:16;;;;;;;14.77;10.17;;;18.10;99.90;;;;;;5031008;28;20192;-78
2022/08/05 06:49:00;;;;;;;13.47;9.63;;;18.10;99.90;;;;;;5025408;28;20215;-78
2022/08/05 06:51:44;;;;;;;12.60;10.33;;;18.10;99.90;;;;;;5027754;28;20200;-78
2022/08/05 06:54:28;;;;;;;11.97;9.87;;;18.20;99.90;;;;;;5025518;28;20263;-77
2022/08/05 06:57:14;;;;;;;11.70;9.23;;;18.10;99.90;;;;;;5030616;28;20238;-78
2022/08/05 06:59:58;;;;;;;13.73;10.43;;;18.20;99.90;;;;;;5027791;28;20255;-77
2022/08/05 07:02:46;;;;;;;13.60;10.50;;;18.20;99.90;;;;;;5024118;28;20224;-77
2022/08/05 07:05:30;;;;;;;12.67;10.67;;;18.20;99.90;;;;;;5027238;28;20202;-77
2022/08/05 07:08:14;;;;;;;13.00;10.07;;;18.20;99.90;;;;;;5027173;28;20203;-78
2022/08/05 07:10:59;;;;;;;12.13;9.93;;;18.20;99.90;;;;;;5027296;28;20658;-78
2022/08/05 07:16:50;;;;;;;16.00;10.77;;;18.10;99.90;;;;;;5026236;28;20219;-78
2022/08/05 07:19:35;;;;;;;14.00;10.13;;;18.10;99.90;;;;;;5024049;28;20246;-78
2022/08/05 07:22:21;;;;;;;11.13;9.93;;;18.10;99.90;;;;;;5024749;28;20266;-78
2022/08/05 07:25:07;;;;;;;13.57;9.87;;;18.10;99.90;;;;;;5027608;28;20187;-78
2022/08/05 07:27:53;;;;;;;10.70;9.60;;;18.10;99.90;;;;;;5025800;28;20218;-78
2022/08/05 07:30:38;;;;;;;12.77;9.27;;;18.00;99.90;;;;;;5028108;28;20219;-78
2022/08/05 07:33:22;;;;;;;14.87;9.67;;;18.00;99.90;;;;;;5023870;28;20203;-78
2022/08/05 07:36:07;;;;;;;13.43;10.13;;;18.00;99.90;;;;;;5025680;28;20226;-78
2022/08/05 07:38:51;;;;;;;12.30;8.90;;;17.90;99.90;;;;;;5023274;28;20777;-78
2022/08/05 07:41:36;;;;;;;10.37;9.33;;;17.90;99.90;;;;;;5027546;28;20223;-79
2022/08/05 07:44:20;;;;;;;10.40;9.00;;;17.90;99.90;;;;;;5029109;28;20183;-79
2022/08/05 07:47:04;;;;;;;9.50;8.53;;;17.80;99.90;;;;;;5025932;28;20207;-78
2022/08/05 07:49:51;;;;;;;10.93;9.53;;;17.80;99.90;;;;;;5023352;28;20303;-78
2022/08/05 07:52:39;;;;;;;10.53;9.43;;;17.80;99.90;;;;;;5026473;28;20286;-78
2022/08/05 07:55:24;;;;;;;11.07;9.33;;;17.80;99.90;;;;;;5039929;28;20709;-78
2022/08/05 07:58:08;;;;;;;9.90;8.90;;;17.80;99.90;;;;;;5022888;28;20648;-78
2022/08/05 08:00:52;;;;;;;11.23;9.73;;;17.90;99.90;;;;;;5027613;28;20223;-78
2022/08/05 08:03:36;;;;;;;10.07;8.80;;;17.90;99.90;;;;;;5027783;28;20183;-78
2022/08/05 08:06:20;;;;;;;11.20;10.07;;;17.90;99.90;;;;;;5025616;28;20195;-78
2022/08/05 08:09:05;;;;;;;13.43;9.93;;;17.80;99.90;;;;;;5025926;28;20588;-78
2022/08/05 08:11:49;;;;;;;13.27;10.90;;;17.90;99.90;;;;;;5026093;28;20668;-78
2022/08/05 08:14:33;;;;;;;11.63;9.70;;;17.80;99.90;;;;;;5029325;28;20183;-78
2022/08/05 08:17:17;;;;;;;14.87;10.93;;;17.80;99.90;;;;;;5029131;28;20179;-78
2022/08/05 08:20:04;;;;;;;15.03;11.47;;;17.80;99.90;;;;;;5027545;28;20623;-78
2022/08/05 08:22:57;;;;;;;12.53;10.30;;;17.80;99.90;;;;;;5027753;28;20288;-78
2022/08/05 08:25:42;;;;;;;15.47;11.10;;;17.80;99.90;;;;;;5030563;28;20198;-78
2022/08/05 08:28:26;;;;;;;12.67;10.13;;;17.90;99.90;;;;;;5022916;28;20614;-78
2022/08/05 08:31:10;;;;;;;12.80;10.50;;;17.90;99.90;;;;;;5028957;28;20214;-78
2022/08/05 08:33:54;;;;;;;11.37;9.10;;;17.80;99.90;;;;;;5031836;28;20214;-78
2022/08/05 08:36:38;;;;;;;14.03;10.27;;;17.80;99.90;;;;;;5023097;28;20204;-78
2022/08/05 08:39:23;;;;;;;14.63;10.10;;;17.90;99.90;;;;;;5028815;28;20228;-78
2022/08/05 08:42:08;;;;;;;10.73;9.57;;;17.90;99.90;;;;;;5044073;28;20210;-78
2022/08/05 08:44:54;;;;;;;11.53;9.30;;;17.90;99.90;;;;;;5030539;28;20231;-78
2022/08/05 08:47:39;;;;;;;10.90;9.23;;;17.90;99.90;;;;;;5027719;28;20186;-78
2022/08/05 08:50:23;;;;;;;10.50;9.13;;;17.90;99.90;;;;;;5031135;28;20214;-78
2022/08/05 08:53:10;;;;;;;9.13;8.13;;;17.90;99.90;;;;;;5026491;28;20241;-78
2022/08/05 08:55:54;;;;;;;9.83;8.50;;;17.90;99.90;;;;;;5028639;28;20272;-78
2022/08/05 08:58:40;;;;;;;10.00;7.70;;;17.90;99.90;;;;;;5024706;28;20215;-78
2022/08/05 09:01:25;;;;;;;10.60;7.33;;;17.90;99.90;;;;;;5029353;28;20191;-78
2022/08/05 09:04:09;;;;;;;7.73;6.23;;;17.90;99.90;;;;;;5030252;28;20195;-78
2022/08/05 09:06:53;;;;;;;9.70;5.80;;;17.90;99.90;;;;;;5018050;28;20718;-78
2022/08/05 09:09:38;;;;;;;6.67;5.73;;;17.90;99.90;;;;;;5023999;28;20219;-78
2022/08/05 09:12:22;;;;;;;8.33;5.93;;;17.80;99.90;;;;;;5029515;28;20239;-78
2022/08/05 09:15:07;;;;;;;8.33;6.20;;;17.80;99.90;;;;;;5030823;28;20195;-78
2022/08/05 09:17:52;;;;;;;9.50;7.63;;;17.80;99.90;;;;;;5028188;28;20188;-80
2022/08/05 09:20:36;;;;;;;8.60;6.67;;;17.90;99.90;;;;;;5027538;28;20219;-81
2022/08/05 09:23:21;;;;;;;9.63;7.67;;;17.80;99.90;;;;;;5028313;28;20709;-80
2022/08/05 09:26:12;;;;;;;9.63;8.30;;;17.90;99.90;;;;;;5033949;28;20242;-80
2022/08/05 09:29:03;;;;;;;10.27;7.17;;;17.90;99.90;;;;;;5023471;28;20262;-80
2022/08/05 09:32:03;;;;;;;3.22;2.92;;;18.00;99.90;;;;;;5029443;28;20234;-80
2022/08/05 09:34:55;;;;;;;2.60;1.53;;;17.90;99.90;;;;;;5030649;28;20199;-79
2022/08/05 09:37:49;;;;;;;1.50;1.40;;;17.80;99.90;;;;;;5031291;28;20200;-80
2022/08/05 09:40:38;;;;;;;3.10;1.70;;;17.70;99.90;;;;;;5027078;28;20214;-80
2022/08/05 09:43:30;;;;;;;3.47;2.67;;;17.70;99.90;;;;;;5030295;28;20232;-80
2022/08/05 09:46:25;;;;;;;5.27;3.20;;;17.70;99.90;;;;;;5032161;28;20203;-80
2022/08/05 09:49:23;;;;;;;3.73;3.40;;;17.70;99.90;;;;;;5045809;28;20291;-81
2022/08/05 09:52:18;;;;;;;3.63;3.33;;;17.80;99.90;;;;;;5034641;28;20222;-81
2022/08/05 09:55:08;;;;;;;4.40;3.83;;;17.80;99.90;;;;;;5030938;28;20191;-80
2022/08/05 09:57:52;;;;;;;6.20;4.30;;;17.80;99.90;;;;;;5026918;28;20195;-81
2022/08/05 10:00:37;;;;;;;7.53;5.00;;;17.80;99.90;;;;;;5029890;28;20234;-81
2022/08/05 10:03:21;;;;;;;8.70;5.80;;;17.80;99.90;;;;;;5029286;28;20192;-80
2022/08/05 10:06:09;;;;;;;7.67;4.80;;;17.90;99.90;;;;;;5029419;28;20207;-81
2022/08/05 10:08:55;;;;;;;8.93;6.33;;;17.90;99.90;;;;;;5029797;28;20227;-80
2022/08/05 10:11:41;;;;;;;7.30;6.47;;;17.90;99.90;;;;;;5029217;28;20264;-80
2022/08/05 10:14:30;;;;;;;9.43;7.67;;;18.00;99.90;;;;;;5027955;28;20192;-80
2022/08/05 10:17:15;;;;;;;8.33;6.33;;;18.00;99.90;;;;;;5031216;28;20207;-79
2022/08/05 10:19:59;;;;;;;8.23;6.35;;;18.10;99.90;;;;;;5029315;28;20258;-79
2022/08/05 10:22:44;;;;;;;6.37;5.50;;;18.00;99.90;;;;;;5031460;28;20251;-77
2022/08/05 10:25:28;;;;;;;6.70;6.00;;;18.10;99.90;;;;;;5029783;28;20279;-78
2022/08/05 10:28:12;;;;;;;6.63;4.93;;;18.10;99.90;;;;;;5027265;28;20555;-78
2022/08/05 10:30:58;;;;;;;7.50;4.30;;;18.10;99.90;;;;;;5023696;28;20338;-78
2022/08/05 10:33:43;;;;;;;7.20;4.73;;;18.10;99.90;;;;;;5027890;28;20544;-78
2022/08/05 10:36:28;;;;;;;4.90;4.50;;;18.10;99.90;;;;;;5024042;28;20184;-78
2022/08/05 10:39:20;;;;;;;6.97;4.80;;;18.10;99.90;;;;;;5022420;28;20222;-78
2022/08/05 10:42:14;;;;;;;6.40;4.63;;;18.10;99.90;;;;;;5026747;28;20223;-78
2022/08/05 10:44:59;;;;;;;5.37;3.97;;;18.20;99.90;;;;;;5023676;28;20602;-78
2022/08/05 10:47:45;;;;;;;3.60;3.13;;;18.30;99.90;;;;;;5028422;28;20203;-78
2022/08/05 10:50:29;;;;;;;2.20;2.03;;;18.30;99.90;;;;;;5027234;28;20262;-78
2022/08/05 10:53:34;;;;;;;3.73;1.70;;;18.30;99.90;;;;;;5027827;28;20563;-78
2022/08/05 10:56:23;;;;;;;2.23;1.50;;;18.40;99.90;;;;;;5028235;28;20191;-78
2022/08/05 10:59:08;;;;;;;2.05;1.77;;;18.40;99.90;;;;;;5024970;28;20214;-78
2022/08/05 11:02:13;;;;;;;6.30;1.60;;;18.40;99.90;;;;;;5023104;28;20247;-78
2022/08/05 11:04:57;;;;;;;3.20;2.20;;;18.40;99.90;;;;;;5030530;28;20187;-78
2022/08/05 11:07:59;;;;;;;3.60;2.60;;;18.50;99.90;;;;;;5024911;28;20187;-78
2022/08/05 11:10:43;;;;;;;3.33;3.03;;;18.60;99.90;;;;;;5024345;28;20243;-78
2022/08/05 11:13:48;;;;;;;3.30;2.90;;;18.60;99.90;;;;;;5028190;28;20261;-78
2022/08/05 11:16:33;;;;;;;3.90;3.43;;;18.70;99.90;;;;;;5038503;28;20199;-78
2022/08/05 11:19:28;;;;;;;5.10;4.60;;;18.70;99.90;;;;;;5028920;28;20277;-78
2022/08/05 11:22:39;;;;;;;6.05;5.38;;;18.70;99.90;;;;;;5026332;28;20200;-78
2022/08/05 11:25:42;;;;;;;10.27;6.50;;;18.80;99.90;;;;;;5029055;28;20560;-77
2022/08/05 11:28:26;;;;;;;7.80;6.15;;;18.80;99.90;;;;;;5023956;28;20195;-77
2022/08/05 11:31:10;;;;;;;8.18;6.72;;;18.90;99.90;;;;;;5024726;28;20210;-78
2022/08/05 11:34:06;;;;;;;6.57;5.82;;;19.00;99.90;;;;;;5025071;28;20222;-78
2022/08/05 11:36:50;;;;;;;6.77;6.10;;;19.10;99.90;;;;;;5027342;28;20196;-77
2022/08/05 11:39:49;;;;;;;6.63;5.97;;;19.10;99.90;;;;;;5024477;28;20227;-78
2022/08/05 11:42:36;;;;;;;7.13;6.40;;;19.10;99.90;;;;;;5026690;28;20215;-78
2022/08/05 11:45:20;;;;;;;7.22;6.05;;;19.20;99.90;;;;;;5024708;28;20204;-78
2022/08/05 11:48:08;;;;;;;8.45;5.93;;;19.20;99.90;;;;;;5027135;28;20315;-78
2022/08/05 11:50:53;;;;;;;10.02;6.60;;;19.30;99.90;;;;;;5026840;28;20219;-79
2022/08/05 11:53:40;;;;;;;6.93;5.43;;;19.40;99.90;;;;;;5024291;28;20588;-78
2022/08/05 11:56:24;;;;;;;6.82;6.13;;;19.40;99.90;;;;;;5025228;28;20188;-78
2022/08/05 11:59:13;;;;;;;8.63;6.38;;;19.50;99.90;;;;;;5022255;28;20214;-78
2022/08/05 12:02:04;;;;;;;9.20;6.47;;;19.50;99.90;;;;;;5029456;28;20191;-78
2022/08/05 12:04:48;;;;;;;9.57;6.47;;;19.60;99.90;;;;;;5029806;28;20199;-78
2022/08/05 12:07:35;;;;;;;8.90;6.40;;;19.70;99.90;;;;;;5026868;28;20178;-78
2022/08/05 12:10:21;;;;;;;7.95;6.28;;;19.70;99.90;;;;;;5029142;28;20622;-78
2022/08/05 12:13:07;;;;;;;8.68;6.70;;;19.80;99.90;;;;;;5032430;28;20219;-78
2022/08/05 12:15:51;;;;;;;8.68;6.25;;;19.90;99.90;;;;;;5026921;28;20235;-78
2022/08/05 12:18:35;;;;;;;9.60;5.68;;;20.00;99.90;;;;;;5032948;28;20673;-78
2022/08/05 12:21:26;;;;;;;6.47;5.60;;;20.10;99.90;;;;;;5029611;28;20187;-78
2022/08/05 12:24:16;;;;;;;10.18;5.78;;;20.10;99.90;;;;;;5030792;28;20219;-79
2022/08/05 12:27:00;;;;;;;7.13;6.00;;;20.20;99.90;;;;;;5029768;28;20203;-79
2022/08/05 12:29:44;;;;;;;6.30;5.50;;;20.20;99.90;;;;;;5030604;28;20250;-78
2022/08/05 12:32:34;;;;;;;5.68;4.75;;;20.30;99.90;;;;;;5029791;28;20222;-78
2022/08/05 12:35:20;;;;;;;6.93;4.57;;;20.30;99.90;;;;;;5031462;28;20183;-78
2022/08/05 12:38:06;;;;;;;7.35;4.88;;;20.30;99.90;;;;;;5026944;28;20183;-79
2022/08/05 12:40:50;;;;;;;5.25;4.75;;;20.30;99.90;;;;;;5032094;28;20538;-78
2022/08/05 12:43:49;;;;;;;5.47;4.95;;;20.30;99.90;;;;;;5022561;28;20199;-78
2022/08/05 12:46:36;;;;;;;6.40;5.10;;;20.30;99.90;;;;;;5036987;28;20220;-78
2022/08/05 12:49:20;;;;;;;9.90;5.13;;;20.30;99.90;;;;;;5029238;28;20250;-78
2022/08/05 12:52:13;;;;;;;7.60;4.65;;;20.30;99.90;;;;;;5028435;28;20214;-78
2022/08/05 12:54:57;;;;;;;7.40;4.55;;;20.30;99.90;;;;;;5027294;28;20188;-79
2022/08/05 12:57:41;;;;;;;8.15;4.45;;;20.40;99.90;;;;;;5030488;28;20175;-78
2022/08/05 13:00:28;;;;;;;7.82;4.47;;;20.40;99.90;;;;;;5030133;28;20215;-78
2022/08/05 13:03:15;;;;;;;5.43;4.47;;;20.40;99.90;;;;;;5026947;28;20211;-78
2022/08/05 13:06:00;;;;;;;9.40;4.60;;;20.50;99.90;;;;;;5028574;28;20286;-78
2022/08/05 13:08:46;;;;;;;5.07;3.97;;;20.50;99.90;;;;;;5028659;28;20683;-79
2022/08/05 13:11:31;;;;;;;7.30;4.80;;;20.70;99.90;;;;;;5030059;28;20413;-78
2022/08/05 13:14:23;;;;;;;4.43;4.03;;;20.80;99.90;;;;;;5030722;28;20268;-78
2022/08/05 13:17:20;;;;;;;6.40;3.80;;;20.90;99.90;;;;;;5030615;28;20184;-78
2022/08/05 13:20:07;;;;;;;4.70;3.05;;;20.90;99.90;;;;;;5027071;28;20215;-78
2022/08/05 13:22:52;;;;;;;4.78;3.25;;;21.00;99.90;;;;;;5029684;28;20290;-79
2022/08/05 13:25:37;;;;;;;3.58;3.13;;;20.90;99.90;;;;;;5029405;28;20191;-78
2022/08/05 13:28:21;;;;;;;7.07;2.92;;;20.90;99.90;;;;;;5030611;28;20226;-79
2022/08/05 13:31:05;;;;;;;3.92;2.33;;;21.00;99.90;;;;;;5029654;28;20224;-79
2022/08/05 13:33:49;;;;;;;4.80;2.03;;;21.10;99.90;;;;;;5033062;28;20241;-78
2022/08/05 13:36:34;;;;;;;1.85;1.75;;;21.20;99.90;;;;;;5033894;28;20678;-79
2022/08/05 13:39:18;;;;;;;4.28;1.77;;;21.20;99.90;;;;;;5033483;28;20290;-78
2022/08/05 13:42:02;;;;;;;4.72;1.98;;;21.20;99.90;;;;;;5026959;28;20214;-79
2022/08/05 13:44:49;;;;;;;9.05;1.80;;;21.10;99.90;;;;;;5036629;28;20244;-79
2022/08/05 13:47:34;;;;;;;7.57;1.23;;;21.20;99.90;;;;;;5028164;28;20617;-78
2022/08/05 13:50:18;;;;;;;2.92;0.80;;;21.10;99.90;;;;;;5029282;28;20689;-78
2022/08/05 13:53:02;;;;;;;1.58;0.55;;;21.00;99.90;;;;;;5029176;28;20258;-78
2022/08/05 13:55:46;;;;;;;3.30;0.75;;;21.00;99.90;;;;;;5030405;28;20183;-78
2022/08/05 13:58:30;;;;;;;3.38;0.80;;;21.00;99.90;;;;;;5032222;28;20689;-78
2022/08/05 14:01:15;;;;;;;6.63;0.88;;;21.00;99.90;;;;;;5032179;28;20192;-78
2022/08/05 14:07:02;;;;;;;1.02;0.40;;;21.10;99.90;;;;;;5032962;28;20207;-78
2022/08/05 14:09:46;;;;;;;2.63;0.47;;;21.10;99.90;;;;;;5024697;28;20223;-78
2022/08/05 14:12:30;;;;;;;3.03;0.50;;;21.20;99.90;;;;;;5036109;28;20297;-78
2022/08/05 14:15:15;;;;;;;1.65;0.40;;;21.20;99.90;;;;;;5034760;28;20214;-78
2022/08/05 14:18:00;;;;;;;1.55;0.50;;;21.10;99.90;;;;;;5029993;28;20239;-78
2022/08/05 14:20:46;;;;;;;2.42;0.52;;;21.20;99.90;;;;;;5030381;28;20301;-78
2022/08/05 14:23:30;;;;;;;1.27;0.45;;;21.20;99.90;;;;;;5033491;28;20590;-78
2022/08/05 14:26:14;;;;;;;1.58;0.40;;;21.30;99.90;;;;;;5032235;28;20203;-78